WZZ2728 LBSF-LUKK
Flight info
| Callsign | WZZ2728 |
|---|---|
| Flight time | 0h 54m |
| Altitude | 37000 |
| Route | GOL DCT SOMOV DCT BCU DCT BUSES |
| Aircraft | A321/M-SDE1E2E3FGIJ1J4RWXY/LB1 |
Departure
| Time | 2026-04-29 17:20 |
|---|---|
| Airport | Sofia Airport (LBSF) |
Arrival
| Time | 2026-04-29 18:15 |
|---|---|
| Airport | Chişinău International Airport (LUKK) |
| Time | Latitude | Longitude | Altitude | Speed | Heading |
|---|---|---|---|---|---|
| 2026-04-29 16:53 | 42.69128 | 23.40086 | 1749 ft | 0 kts | 197° |
| 2026-04-29 17:15 | 42.69125 | 23.40084 | 1748 ft | 1 kts | 197° |
| 2026-04-29 17:15 | 42.69096 | 23.40072 | 1743 ft | 7 kts | 204° |
| 2026-04-29 17:16 | 42.69093 | 23.40001 | 1743 ft | 10 kts | 278° |
| 2026-04-29 17:16 | 42.69109 | 23.39880 | 1746 ft | 17 kts | 286° |
| 2026-04-29 17:16 | 42.69141 | 23.39733 | 1745 ft | 17 kts | 287° |
| 2026-04-29 17:16 | 42.69175 | 23.39582 | 1747 ft | 15 kts | 291° |
| 2026-04-29 17:17 | 42.69264 | 23.39547 | 1748 ft | 15 kts | 4° |
| 2026-04-29 17:17 | 42.69362 | 23.39558 | 1745 ft | 14 kts | 5° |
| 2026-04-29 17:17 | 42.69445 | 23.39568 | 1741 ft | 12 kts | 5° |
| 2026-04-29 17:17 | 42.69534 | 23.39578 | 1748 ft | 13 kts | 5° |
| 2026-04-29 17:18 | 42.69633 | 23.39589 | 1748 ft | 15 kts | 5° |
| 2026-04-29 17:18 | 42.69729 | 23.39599 | 1744 ft | 9 kts | 5° |
| 2026-04-29 17:18 | 42.69771 | 23.39656 | 1744 ft | 9 kts | 85° |
| 2026-04-29 17:18 | 42.69770 | 23.39671 | 1747 ft | 0 kts | 92° |
| 2026-04-29 17:19 | 42.69766 | 23.39755 | 1744 ft | 30 kts | 94° |
| 2026-04-29 17:20 | 42.69726 | 23.40405 | 1748 ft | 106 kts | 95° |
| 2026-04-29 17:20 | 42.69649 | 23.41689 | 1772 ft | 162 kts | 95° |
| 2026-04-29 17:20 | 42.69553 | 23.43197 | 2544 ft | 159 kts | 96° |
| 2026-04-29 17:20 | 42.69466 | 23.44723 | 3190 ft | 169 kts | 91° |
| 2026-04-29 17:21 | 42.69906 | 23.46330 | 3476 ft | 199 kts | 57° |
| 2026-04-29 17:21 | 42.70766 | 23.47939 | 3757 ft | 223 kts | 56° |
| 2026-04-29 17:21 | 42.71727 | 23.49741 | 4093 ft | 247 kts | 55° |
| 2026-04-29 17:21 | 42.72764 | 23.51684 | 4756 ft | 258 kts | 56° |
| 2026-04-29 17:22 | 42.73835 | 23.53695 | 5504 ft | 266 kts | 54° |
| 2026-04-29 17:22 | 42.74935 | 23.55765 | 6275 ft | 273 kts | 54° |
| 2026-04-29 17:22 | 42.76064 | 23.57889 | 7003 ft | 281 kts | 53° |
| 2026-04-29 17:22 | 42.77221 | 23.60076 | 7747 ft | 287 kts | 53° |
| 2026-04-29 17:23 | 42.78393 | 23.62304 | 8530 ft | 292 kts | 53° |
| 2026-04-29 17:23 | 42.79585 | 23.64571 | 9262 ft | 298 kts | 52° |
| 2026-04-29 17:23 | 42.80788 | 23.66853 | 10032 ft | 303 kts | 51° |
| 2026-04-29 17:23 | 42.82047 | 23.69241 | 10474 ft | 321 kts | 52° |
| 2026-04-29 17:24 | 42.83397 | 23.71804 | 10746 ft | 342 kts | 52° |
| 2026-04-29 17:24 | 42.84801 | 23.74485 | 11291 ft | 352 kts | 52° |
| 2026-04-29 17:24 | 42.86234 | 23.77226 | 11974 ft | 357 kts | 51° |
| 2026-04-29 17:24 | 42.87685 | 23.80006 | 12687 ft | 362 kts | 51° |
| 2026-04-29 17:25 | 42.89157 | 23.82825 | 13404 ft | 367 kts | 51° |
| 2026-04-29 17:25 | 42.90646 | 23.85680 | 14100 ft | 372 kts | 51° |
| 2026-04-29 17:25 | 42.92151 | 23.88568 | 14731 ft | 376 kts | 51° |
| 2026-04-29 17:25 | 42.93675 | 23.91492 | 15382 ft | 380 kts | 51° |
| 2026-04-29 17:26 | 42.95211 | 23.94444 | 16047 ft | 383 kts | 50° |
| 2026-04-29 17:26 | 42.96758 | 23.97422 | 16725 ft | 387 kts | 50° |
| 2026-04-29 17:26 | 42.98319 | 24.00429 | 17358 ft | 390 kts | 50° |
| 2026-04-29 17:26 | 42.99895 | 24.03464 | 17994 ft | 394 kts | 50° |
| 2026-04-29 17:27 | 43.01490 | 24.06538 | 18596 ft | 399 kts | 50° |
| 2026-04-29 17:27 | 43.03098 | 24.09644 | 19124 ft | 402 kts | 50° |
| 2026-04-29 17:27 | 43.04721 | 24.12781 | 19694 ft | 406 kts | 50° |
| 2026-04-29 17:27 | 43.06356 | 24.15944 | 20265 ft | 409 kts | 50° |
| 2026-04-29 17:28 | 43.08005 | 24.19133 | 20837 ft | 412 kts | 49° |
| 2026-04-29 17:28 | 43.09849 | 24.22117 | 21388 ft | 410 kts | 40° |
| 2026-04-29 17:28 | 43.12004 | 24.24652 | 21950 ft | 408 kts | 31° |
| 2026-04-29 17:28 | 43.14287 | 24.26987 | 22497 ft | 412 kts | 31° |
| 2026-04-29 17:29 | 43.16593 | 24.29342 | 23031 ft | 416 kts | 31° |
| 2026-04-29 17:29 | 43.18918 | 24.31727 | 23573 ft | 419 kts | 31° |
| 2026-04-29 17:29 | 43.21262 | 24.34141 | 24049 ft | 423 kts | 31° |
| 2026-04-29 17:29 | 43.22819 | 24.35748 | 24349 ft | 424 kts | 31° |
| 2026-04-29 17:30 | 43.25984 | 24.39025 | 24958 ft | 428 kts | 31° |
| 2026-04-29 17:30 | 43.28367 | 24.41495 | 25402 ft | 430 kts | 31° |
| 2026-04-29 17:30 | 43.30760 | 24.43978 | 25862 ft | 433 kts | 30° |
| 2026-04-29 17:30 | 43.33171 | 24.46479 | 26296 ft | 435 kts | 30° |
| 2026-04-29 17:31 | 43.35564 | 24.48959 | 26715 ft | 438 kts | 30° |
| 2026-04-29 17:31 | 43.38002 | 24.51488 | 27138 ft | 440 kts | 30° |
| 2026-04-29 17:31 | 43.40452 | 24.54034 | 27569 ft | 443 kts | 30° |
| 2026-04-29 17:31 | 43.42918 | 24.56602 | 27981 ft | 445 kts | 30° |
| 2026-04-29 17:32 | 43.45394 | 24.59184 | 28425 ft | 448 kts | 29° |
| 2026-04-29 17:32 | 43.47885 | 24.61782 | 28810 ft | 451 kts | 29° |
| 2026-04-29 17:32 | 43.50394 | 24.64400 | 29204 ft | 453 kts | 29° |
| 2026-04-29 17:32 | 43.52915 | 24.67031 | 29592 ft | 456 kts | 29° |
| 2026-04-29 17:33 | 43.55449 | 24.69679 | 29975 ft | 459 kts | 29° |
| 2026-04-29 17:33 | 43.57996 | 24.72345 | 30322 ft | 461 kts | 29° |
| 2026-04-29 17:33 | 43.60556 | 24.75033 | 30642 ft | 463 kts | 29° |
| 2026-04-29 17:33 | 43.63125 | 24.77736 | 30998 ft | 465 kts | 29° |
| 2026-04-29 17:34 | 43.65704 | 24.80455 | 31306 ft | 468 kts | 29° |
| 2026-04-29 17:34 | 43.68290 | 24.83181 | 31620 ft | 469 kts | 28° |
| 2026-04-29 17:34 | 43.71011 | 24.85616 | 31954 ft | 461 kts | 20° |
| 2026-04-29 17:34 | 43.73863 | 24.87562 | 32397 ft | 456 kts | 17° |
| 2026-04-29 17:35 | 43.78607 | 24.90710 | 33183 ft | 454 kts | 17° |
| 2026-04-29 17:35 | 43.82417 | 24.93254 | 33747 ft | 454 kts | 17° |
| 2026-04-29 17:35 | 43.85257 | 24.95160 | 34172 ft | 453 kts | 17° |
| 2026-04-29 17:36 | 43.88093 | 24.97065 | 34529 ft | 453 kts | 17° |
| 2026-04-29 17:36 | 43.90887 | 24.99106 | 34860 ft | 460 kts | 25° |
| 2026-04-29 17:36 | 43.93541 | 25.01628 | 35189 ft | 462 kts | 26° |
| 2026-04-29 17:36 | 43.96178 | 25.04177 | 35529 ft | 462 kts | 27° |
| 2026-04-29 17:37 | 43.98811 | 25.06735 | 35874 ft | 462 kts | 27° |
| 2026-04-29 17:37 | 44.01440 | 25.09296 | 36207 ft | 461 kts | 27° |
| 2026-04-29 17:37 | 44.04069 | 25.11857 | 36526 ft | 461 kts | 27° |
| 2026-04-29 17:37 | 44.06694 | 25.14412 | 36852 ft | 461 kts | 27° |
| 2026-04-29 17:38 | 44.09319 | 25.16968 | 37121 ft | 461 kts | 27° |
| 2026-04-29 17:38 | 44.14558 | 25.22074 | 37156 ft | 459 kts | 27° |
| 2026-04-29 17:39 | 44.19782 | 25.27173 | 37165 ft | 458 kts | 27° |
| 2026-04-29 17:39 | 44.24999 | 25.32274 | 37167 ft | 458 kts | 27° |
| 2026-04-29 17:40 | 44.30220 | 25.37386 | 37154 ft | 459 kts | 27° |
| 2026-04-29 17:40 | 44.35443 | 25.42523 | 37173 ft | 460 kts | 27° |
| 2026-04-29 17:41 | 44.40672 | 25.47681 | 37178 ft | 460 kts | 27° |
| 2026-04-29 17:41 | 44.45898 | 25.52837 | 37216 ft | 460 kts | 27° |
| 2026-04-29 17:42 | 44.51126 | 25.58022 | 37199 ft | 460 kts | 27° |
| 2026-04-29 17:42 | 44.56354 | 25.63216 | 37195 ft | 460 kts | 27° |
| 2026-04-29 17:43 | 44.61585 | 25.68403 | 37192 ft | 461 kts | 27° |
| 2026-04-29 17:43 | 44.66815 | 25.73604 | 37205 ft | 461 kts | 28° |
| 2026-04-29 17:44 | 44.72040 | 25.78821 | 37197 ft | 461 kts | 28° |
| 2026-04-29 17:44 | 44.77265 | 25.84051 | 37194 ft | 461 kts | 28° |
| 2026-04-29 17:45 | 44.82487 | 25.89301 | 37207 ft | 461 kts | 28° |
| 2026-04-29 17:45 | 44.87704 | 25.94554 | 37207 ft | 461 kts | 28° |
| 2026-04-29 17:46 | 44.92924 | 25.99803 | 37208 ft | 461 kts | 28° |
| 2026-04-29 17:46 | 44.98129 | 26.05062 | 37222 ft | 460 kts | 28° |
| 2026-04-29 17:47 | 45.03323 | 26.10321 | 37212 ft | 459 kts | 28° |
| 2026-04-29 17:47 | 45.08509 | 26.15583 | 37209 ft | 459 kts | 28° |
| 2026-04-29 17:48 | 45.13695 | 26.20858 | 37231 ft | 459 kts | 29° |
| 2026-04-29 17:48 | 45.18883 | 26.26146 | 37213 ft | 460 kts | 28° |
| 2026-04-29 17:49 | 45.24035 | 26.31419 | 37214 ft | 460 kts | 29° |
| 2026-04-29 17:49 | 45.29223 | 26.36727 | 37220 ft | 460 kts | 29° |
| 2026-04-29 17:50 | 45.34418 | 26.42048 | 37215 ft | 460 kts | 29° |
| 2026-04-29 17:50 | 45.39600 | 26.47387 | 37211 ft | 460 kts | 29° |
| 2026-04-29 17:51 | 45.44792 | 26.52741 | 37217 ft | 461 kts | 29° |
| 2026-04-29 17:51 | 45.49984 | 26.58115 | 37225 ft | 461 kts | 29° |
| 2026-04-29 17:52 | 45.55167 | 26.63483 | 37219 ft | 460 kts | 29° |
| 2026-04-29 17:52 | 45.60345 | 26.68849 | 37218 ft | 460 kts | 29° |
| 2026-04-29 17:53 | 45.65519 | 26.74235 | 37211 ft | 461 kts | 29° |
| 2026-04-29 17:53 | 45.70711 | 26.79648 | 37072 ft | 463 kts | 29° |
| 2026-04-29 17:53 | 45.73339 | 26.82386 | 36104 ft | 472 kts | 29° |
| 2026-04-29 17:54 | 45.75998 | 26.85161 | 35398 ft | 473 kts | 28° |
| 2026-04-29 17:54 | 45.78648 | 26.87938 | 34793 ft | 470 kts | 28° |
| 2026-04-29 17:54 | 45.81278 | 26.90707 | 34086 ft | 467 kts | 28° |
| 2026-04-29 17:54 | 45.83885 | 26.93459 | 33347 ft | 463 kts | 27° |
| 2026-04-29 17:55 | 45.86474 | 26.96194 | 32531 ft | 461 kts | 27° |
| 2026-04-29 17:55 | 45.89047 | 26.98912 | 31724 ft | 458 kts | 26° |
| 2026-04-29 17:55 | 45.91606 | 27.01612 | 30967 ft | 455 kts | 25° |
| 2026-04-29 17:55 | 45.94151 | 27.04297 | 30217 ft | 452 kts | 25° |
| 2026-04-29 17:56 | 45.96676 | 27.06963 | 29398 ft | 448 kts | 25° |
| 2026-04-29 17:56 | 45.99180 | 27.09607 | 28851 ft | 445 kts | 25° |
| 2026-04-29 17:56 | 46.01679 | 27.12245 | 28329 ft | 445 kts | 26° |
| 2026-04-29 17:56 | 46.04161 | 27.14875 | 27881 ft | 441 kts | 26° |
| 2026-04-29 17:57 | 46.06622 | 27.17488 | 27435 ft | 438 kts | 26° |
| 2026-04-29 17:57 | 46.09064 | 27.20083 | 26991 ft | 435 kts | 26° |
| 2026-04-29 17:57 | 46.11490 | 27.22662 | 26558 ft | 432 kts | 26° |
| 2026-04-29 17:57 | 46.13086 | 27.24361 | 26270 ft | 430 kts | 27° |
| 2026-04-29 17:58 | 46.15481 | 27.26912 | 25815 ft | 427 kts | 27° |
| 2026-04-29 17:58 | 46.17856 | 27.29448 | 25381 ft | 424 kts | 28° |
| 2026-04-29 17:58 | 46.20981 | 27.32787 | 24755 ft | 420 kts | 28° |
| 2026-04-29 17:58 | 46.22563 | 27.34476 | 24444 ft | 418 kts | 28° |
| 2026-04-29 17:59 | 46.24892 | 27.36966 | 23983 ft | 415 kts | 28° |
| 2026-04-29 17:59 | 46.27211 | 27.39447 | 23454 ft | 414 kts | 29° |
| 2026-04-29 17:59 | 46.29511 | 27.41913 | 22971 ft | 410 kts | 29° |
| 2026-04-29 17:59 | 46.31792 | 27.44364 | 22493 ft | 407 kts | 29° |
| 2026-04-29 18:00 | 46.34050 | 27.46799 | 22018 ft | 403 kts | 29° |
| 2026-04-29 18:00 | 46.36293 | 27.49216 | 21542 ft | 401 kts | 30° |
| 2026-04-29 18:00 | 46.38523 | 27.51617 | 21063 ft | 398 kts | 30° |
| 2026-04-29 18:00 | 46.40732 | 27.53994 | 20595 ft | 394 kts | 30° |
| 2026-04-29 18:01 | 46.42921 | 27.56352 | 20127 ft | 391 kts | 30° |
| 2026-04-29 18:01 | 46.45097 | 27.58696 | 19645 ft | 388 kts | 30° |
| 2026-04-29 18:01 | 46.47250 | 27.61023 | 19194 ft | 384 kts | 31° |
| 2026-04-29 18:01 | 46.49387 | 27.63334 | 18713 ft | 381 kts | 31° |
| 2026-04-29 18:02 | 46.51476 | 27.65595 | 18245 ft | 378 kts | 31° |
| 2026-04-29 18:02 | 46.53577 | 27.67877 | 17770 ft | 376 kts | 32° |
| 2026-04-29 18:02 | 46.55471 | 27.70599 | 16813 ft | 394 kts | 51° |
| 2026-04-29 18:02 | 46.56884 | 27.73999 | 16327 ft | 392 kts | 56° |
| 2026-04-29 18:03 | 46.58240 | 27.77361 | 16078 ft | 380 kts | 56° |
| 2026-04-29 18:03 | 46.59574 | 27.80653 | 15647 ft | 376 kts | 56° |
| 2026-04-29 18:03 | 46.60898 | 27.83907 | 15155 ft | 373 kts | 56° |
| 2026-04-29 18:03 | 46.62214 | 27.87139 | 14682 ft | 370 kts | 56° |
| 2026-04-29 18:04 | 46.63514 | 27.90343 | 14217 ft | 367 kts | 56° |
| 2026-04-29 18:04 | 46.64807 | 27.93536 | 13716 ft | 365 kts | 56° |
| 2026-04-29 18:04 | 46.66084 | 27.96702 | 13239 ft | 361 kts | 56° |
| 2026-04-29 18:04 | 46.67348 | 27.99842 | 12753 ft | 358 kts | 56° |
| 2026-04-29 18:05 | 46.68600 | 28.02956 | 12287 ft | 355 kts | 56° |
| 2026-04-29 18:05 | 46.69840 | 28.06044 | 11829 ft | 351 kts | 56° |
| 2026-04-29 18:05 | 46.71066 | 28.09097 | 11379 ft | 347 kts | 56° |
| 2026-04-29 18:05 | 46.72278 | 28.12117 | 10949 ft | 344 kts | 56° |
| 2026-04-29 18:06 | 46.73478 | 28.15112 | 10518 ft | 340 kts | 57° |
| 2026-04-29 18:06 | 46.74664 | 28.18076 | 10100 ft | 337 kts | 57° |
| 2026-04-29 18:06 | 46.75838 | 28.21011 | 9621 ft | 333 kts | 57° |
| 2026-04-29 18:06 | 46.76998 | 28.23915 | 9199 ft | 330 kts | 58° |
| 2026-04-29 18:07 | 46.78146 | 28.26787 | 8756 ft | 326 kts | 58° |
| 2026-04-29 18:07 | 46.79280 | 28.29629 | 8335 ft | 322 kts | 59° |
| 2026-04-29 18:07 | 46.80400 | 28.32444 | 7910 ft | 319 kts | 59° |
| 2026-04-29 18:07 | 46.81505 | 28.35224 | 7506 ft | 315 kts | 59° |
| 2026-04-29 18:08 | 46.82598 | 28.37975 | 7074 ft | 312 kts | 59° |
| 2026-04-29 18:08 | 46.83684 | 28.40709 | 6649 ft | 310 kts | 60° |
| 2026-04-29 18:08 | 46.84759 | 28.43421 | 6182 ft | 307 kts | 59° |
| 2026-04-29 18:08 | 46.85807 | 28.46074 | 5798 ft | 303 kts | 59° |
| 2026-04-29 18:09 | 46.86862 | 28.48746 | 5484 ft | 296 kts | 60° |
| 2026-04-29 18:09 | 46.87880 | 28.51324 | 5175 ft | 290 kts | 60° |
| 2026-04-29 18:09 | 46.88863 | 28.53818 | 4862 ft | 284 kts | 59° |
| 2026-04-29 18:09 | 46.89833 | 28.56278 | 4687 ft | 274 kts | 59° |
| 2026-04-29 18:10 | 46.90770 | 28.58656 | 4400 ft | 268 kts | 58° |
| 2026-04-29 18:10 | 46.91677 | 28.60996 | 4213 ft | 260 kts | 62° |
| 2026-04-29 18:10 | 46.92133 | 28.63499 | 4070 ft | 253 kts | 84° |
| 2026-04-29 18:10 | 46.92199 | 28.66039 | 3804 ft | 245 kts | 86° |
| 2026-04-29 18:11 | 46.92246 | 28.68476 | 3521 ft | 233 kts | 85° |
| 2026-04-29 18:11 | 46.92295 | 28.70782 | 3183 ft | 221 kts | 85° |
| 2026-04-29 18:11 | 46.92345 | 28.72974 | 2872 ft | 210 kts | 86° |
| 2026-04-29 18:11 | 46.92391 | 28.75048 | 2599 ft | 197 kts | 86° |
| 2026-04-29 18:12 | 46.92434 | 28.76974 | 2332 ft | 182 kts | 86° |
| 2026-04-29 18:12 | 46.92473 | 28.78741 | 2109 ft | 166 kts | 85° |
| 2026-04-29 18:12 | 46.92508 | 28.80357 | 1889 ft | 151 kts | 85° |
| 2026-04-29 18:12 | 46.92540 | 28.81854 | 1669 ft | 144 kts | 85° |
| 2026-04-29 18:13 | 46.92572 | 28.83301 | 1470 ft | 141 kts | 85° |
| 2026-04-29 18:13 | 46.92603 | 28.84732 | 1273 ft | 140 kts | 85° |
| 2026-04-29 18:13 | 46.92634 | 28.86147 | 1082 ft | 138 kts | 85° |
| 2026-04-29 18:13 | 46.92666 | 28.87538 | 883 ft | 136 kts | 84° |
| 2026-04-29 18:14 | 46.92693 | 28.88921 | 687 ft | 135 kts | 85° |
| 2026-04-29 18:14 | 46.92723 | 28.90287 | 513 ft | 134 kts | 84° |
| 2026-04-29 18:14 | 46.92751 | 28.91608 | 386 ft | 118 kts | 88° |
| 2026-04-29 18:14 | 46.92769 | 28.92575 | 362 ft | 75 kts | 88° |
| 2026-04-29 18:15 | 46.92782 | 28.93190 | 345 ft | 51 kts | 90° |
| 2026-04-29 18:15 | 46.92818 | 28.93411 | 340 ft | 17 kts | 20° |
| 2026-04-29 18:15 | 46.92902 | 28.93412 | 336 ft | 13 kts | 359° |
| 2026-04-29 18:15 | 46.93000 | 28.93412 | 340 ft | 15 kts | 6° |
| 2026-04-29 18:16 | 46.93078 | 28.93425 | 338 ft | 2 kts | 6° |
| 2026-04-29 18:16 | 46.93105 | 28.93429 | 339 ft | 5 kts | 6° |
| 2026-04-29 18:16 | 46.93144 | 28.93467 | 333 ft | 8 kts | 44° |
| 2026-04-29 18:16 | 46.93143 | 28.93566 | 335 ft | 12 kts | 97° |
| 2026-04-29 18:17 | 46.93152 | 28.93631 | 334 ft | 3 kts | 5° |
| 2026-04-29 18:17 | 46.93170 | 28.93620 | 334 ft | 0 kts | 340° |
| 2026-04-29 18:17 | 46.93171 | 28.93620 | 334 ft | 1 kts | 340° |
| 2026-04-29 18:17 | 46.93205 | 28.93615 | 332 ft | 8 kts | 355° |
| 2026-04-29 18:18 | 46.93232 | 28.93583 | 331 ft | 4 kts | 277° |
| 2026-04-29 18:18 | 46.93236 | 28.93548 | 332 ft | 3 kts | 278° |
| 2026-04-29 18:18 | 46.93238 | 28.93520 | 334 ft | 2 kts | 278° |
| 2026-04-29 18:18 | 46.93239 | 28.93515 | 334 ft | 0 kts | 278° |